Time;durP1;ratioP1;P1;durP2;ratioP2;P2;SDS_P1;SDS_P2;PMS_P1;PMS_P2;Temp;Humidity;BMP_temperature;BMP_pressure;BME280_temperature;BME280_humidity;BME280_pressure;Samples;Min_cycle;Max_cycle;Signal;HPM_P1;HPM_P2
2023/07/14 00:01:23;;;;;;;;;4.50;4.50;;;;;;;;5073762;28;8774;-88
2023/07/14 00:03:51;;;;;;;;;5.00;5.00;;;;;;;;5073779;28;8842;-89
2023/07/14 00:06:20;;;;;;;;;5.50;4.00;;;;;;;;5073422;28;8873;-90
2023/07/14 00:08:50;;;;;;;;;6.00;4.00;;;;;;;;5072980;28;9651;-88
2023/07/14 00:11:19;;;;;;;;;3.25;3.25;;;;;;;;5072723;28;8830;-86
2023/07/14 00:13:49;;;;;;;;;4.25;4.25;;;;;;;;5072321;28;8844;-90
2023/07/14 00:16:18;;;;;;;;;4.00;4.00;;;;;;;;5072293;28;8850;-88
2023/07/14 00:18:45;;;;;;;;;6.75;5.50;;;;;;;;5072459;28;8846;-86
2023/07/14 00:21:17;;;;;;;;;5.25;5.25;;;;;;;;5072407;28;8881;-90
2023/07/14 00:23:44;;;;;;;;;3.00;3.00;;;;;;;;5072377;28;8864;-91
2023/07/14 00:26:16;;;;;;;;;3.50;3.50;;;;;;;;5076727;28;8853;-89
2023/07/14 00:28:44;;;;;;;;;3.00;3.00;;;;;;;;5097086;28;9019;-88
2023/07/14 00:31:15;;;;;;;;;6.00;6.00;;;;;;;;5097484;28;8772;-87
2023/07/14 00:33:45;;;;;;;;;5.75;5.00;;;;;;;;5096212;28;9002;-92
2023/07/14 00:36:19;;;;;;;;;5.00;5.00;;;;;;;;5092834;28;8863;-90
2023/07/14 00:38:46;;;;;;;;;4.75;3.25;;;;;;;;5092609;28;8955;-94
2023/07/14 00:41:19;;;;;;;;;3.75;3.75;;;;;;;;5092463;28;9454;-95
2023/07/14 00:43:48;;;;;;;;;6.50;6.50;;;;;;;;5096316;28;8847;-90
2023/07/14 00:46:25;;;;;;;;;4.25;4.25;;;;;;;;5092804;28;8864;-93
2023/07/14 00:48:56;;;;;;;;;4.75;4.75;;;;;;;;5094661;28;8866;-93
2023/07/14 00:51:26;;;;;;;;;5.25;5.25;;;;;;;;5100176;28;8855;-89
2023/07/14 00:53:56;;;;;;;;;6.75;6.75;;;;;;;;5105845;28;8840;-94
2023/07/14 00:56:34;;;;;;;;;4.00;4.00;;;;;;;;5101204;28;8843;-93
2023/07/14 00:59:03;;;;;;;;;4.50;4.50;;;;;;;;5093648;28;8935;-93
2023/07/14 01:01:34;;;;;;;;;5.75;5.75;;;;;;;;5093118;28;8761;-95
2023/07/14 01:04:02;;;;;;;;;4.00;4.00;;;;;;;;5092521;28;8870;-88
2023/07/14 01:06:32;;;;;;;;;5.00;5.00;;;;;;;;5098079;28;8954;-95
2023/07/14 01:09:04;;;;;;;;;5.00;5.00;;;;;;;;5097851;28;8848;-93
2023/07/14 01:11:34;;;;;;;;;5.75;5.75;;;;;;;;5098889;28;8852;-96
2023/07/14 01:14:04;;;;;;;;;4.50;3.75;;;;;;;;5095593;28;8860;-96
2023/07/14 01:16:34;;;;;;;;;5.50;3.75;;;;;;;;5080915;28;8847;-93
2023/07/14 01:19:02;;;;;;;;;3.50;3.50;;;;;;;;5093513;28;8960;-89
2023/07/14 01:21:30;;;;;;;;;4.25;4.25;;;;;;;;5092129;28;8848;-91
2023/07/14 01:24:03;;;;;;;;;5.00;5.00;;;;;;;;5092026;28;8847;-91
2023/07/14 01:26:57;;;;;;;;;6.75;5.00;;;;;;;;5086388;28;8827;-92
2023/07/14 01:29:26;;;;;;;;;5.75;5.75;;;;;;;;5073267;28;8872;-93
2023/07/14 01:31:54;;;;;;;;;5.00;5.00;;;;;;;;5073833;28;8797;-93
2023/07/14 01:34:21;;;;;;;;;4.75;4.75;;;;;;;;5074441;28;8865;-91
2023/07/14 01:36:49;;;;;;;;;5.25;4.00;;;;;;;;5071562;28;8846;-92
2023/07/14 01:39:16;;;;;;;;;5.00;5.00;;;;;;;;5070897;28;8827;-89
2023/07/14 01:41:44;;;;;;;;;4.00;4.00;;;;;;;;5070969;28;8972;-93
2023/07/14 01:44:20;;;;;;;;;3.75;3.00;;;;;;;;5076750;28;8867;-93
2023/07/14 01:46:49;;;;;;;;;4.25;4.25;;;;;;;;5078925;28;8834;-93
2023/07/14 01:49:33;;;;;;;;;6.75;6.50;;;;;;;;5060001;28;8853;-93
2023/07/14 01:52:02;;;;;;;;;5.75;5.00;;;;;;;;5072561;28;8852;-92
2023/07/14 01:54:34;;;;;;;;;5.75;5.75;;;;;;;;5071691;28;9009;-94
2023/07/14 01:57:04;;;;;;;;;4.75;4.00;;;;;;;;5074431;28;8849;-94
2023/07/14 01:59:34;;;;;;;;;3.75;3.75;;;;;;;;5071356;28;8874;-94
2023/07/14 02:02:06;;;;;;;;;2.50;2.50;;;;;;;;5070364;28;8786;-92
2023/07/14 02:04:39;;;;;;;;;3.50;3.50;;;;;;;;5053605;28;8873;-88
2023/07/14 02:07:08;;;;;;;;;4.00;4.00;;;;;;;;5070967;28;8877;-90
2023/07/14 02:09:57;;;;;;;;;4.50;4.50;;;;;;;;5075875;28;8869;-82
2023/07/14 02:12:29;;;;;;;;;4.00;4.00;;;;;;;;5056426;28;8857;-89
2023/07/14 02:15:02;;;;;;;;;4.00;4.00;;;;;;;;5072854;28;8861;-92
2023/07/14 02:17:33;;;;;;;;;6.50;5.75;;;;;;;;5070737;28;8865;-83
2023/07/14 02:20:04;;;;;;;;;5.50;4.50;;;;;;;;5070815;28;9616;-89
2023/07/14 02:22:33;;;;;;;;;4.00;4.00;;;;;;;;5074626;28;8841;-89
2023/07/14 02:25:02;;;;;;;;;3.00;3.00;;;;;;;;5075230;28;8869;-88
2023/07/14 02:27:33;;;;;;;;;4.00;4.00;;;;;;;;5090899;28;8851;-93
2023/07/14 02:30:01;;;;;;;;;5.75;5.00;;;;;;;;5094171;28;8839;-86
2023/07/14 02:32:34;;;;;;;;;4.50;4.50;;;;;;;;5093594;28;9574;-94
2023/07/14 02:35:06;;;;;;;;;5.25;5.25;;;;;;;;5093883;28;8978;-92
2023/07/14 02:38:00;;;;;;;;;5.00;5.00;;;;;;;;5091737;28;8859;-86
2023/07/14 02:40:33;;;;;;;;;4.75;4.75;;;;;;;;5076376;28;8848;-93
2023/07/14 02:43:03;;;;;;;;;4.00;4.00;;;;;;;;5091354;28;8965;-92
2023/07/14 02:45:34;;;;;;;;;4.00;4.00;;;;;;;;5091155;28;8848;-89
2023/07/14 02:48:04;;;;;;;;;5.25;5.25;;;;;;;;5091073;28;8958;-86
2023/07/14 02:50:31;;;;;;;;;5.00;5.00;;;;;;;;5091169;28;8832;-85
2023/07/14 02:52:59;;;;;;;;;4.25;4.25;;;;;;;;5091668;28;8843;-92
2023/07/14 02:55:26;;;;;;;;;4.50;4.50;;;;;;;;5091192;28;8866;-90
2023/07/14 02:57:56;;;;;;;;;4.75;4.75;;;;;;;;5095285;28;8954;-94
2023/07/14 03:00:24;;;;;;;;;3.75;3.75;;;;;;;;5107742;28;8960;-94
2023/07/14 03:02:51;;;;;;;;;4.75;4.75;;;;;;;;5111316;28;9574;-96
2023/07/14 03:05:20;;;;;;;;;5.00;5.00;;;;;;;;5106812;28;8958;-94
2023/07/14 03:07:47;;;;;;;;;6.25;4.00;;;;;;;;5105669;28;8998;-96
2023/07/14 03:10:15;;;;;;;;;6.50;4.25;;;;;;;;5086361;28;8839;-95
2023/07/14 03:12:53;;;;;;;;;5.50;4.50;;;;;;;;5098226;28;8950;-88
2023/07/14 03:15:20;;;;;;;;;5.50;5.25;;;;;;;;5086568;28;8978;-95
2023/07/14 03:17:48;;;;;;;;;3.75;3.25;;;;;;;;5099434;28;8844;-94
2023/07/14 03:20:15;;;;;;;;;4.00;4.00;;;;;;;;5097008;28;8974;-94
2023/07/14 03:22:44;;;;;;;;;3.25;3.25;;;;;;;;5095743;28;8855;-95
2023/07/14 03:25:13;;;;;;;;;3.75;3.75;;;;;;;;5100706;28;8939;-91
2023/07/14 03:27:47;;;;;;;;;5.00;5.00;;;;;;;;5091298;28;8830;-83
2023/07/14 03:30:15;;;;;;;;;4.00;4.00;;;;;;;;5088580;28;8875;-87
2023/07/14 03:32:43;;;;;;;;;4.75;4.75;;;;;;;;5086113;28;8869;-95
2023/07/14 03:35:11;;;;;;;;;4.00;4.00;;;;;;;;5079286;28;8850;-94
2023/07/14 03:37:41;;;;;;;;;7.00;5.25;;;;;;;;5074619;28;9009;-94
2023/07/14 03:40:11;;;;;;;;;8.25;4.75;;;;;;;;5063168;28;8961;-96
2023/07/14 03:42:39;;;;;;;;;5.00;5.00;;;;;;;;5089654;28;8858;-82
2023/07/14 03:45:08;;;;;;;;;5.00;5.00;;;;;;;;5097273;28;8858;-84
2023/07/14 03:47:38;;;;;;;;;7.75;4.50;;;;;;;;5061855;28;8963;-91
2023/07/14 03:50:06;;;;;;;;;3.00;3.00;;;;;;;;5080451;28;8900;-85
2023/07/14 03:52:33;;;;;;;;;5.50;5.50;;;;;;;;5076334;28;8874;-95
2023/07/14 03:55:00;;;;;;;;;5.50;4.00;;;;;;;;5079114;28;8850;-96
2023/07/14 03:57:29;;;;;;;;;4.25;4.25;;;;;;;;5059007;28;8877;-95
2023/07/14 03:59:56;;;;;;;;;4.25;4.25;;;;;;;;5077560;28;8971;-89
2023/07/14 04:02:24;;;;;;;;;6.00;4.75;;;;;;;;5076804;28;8873;-91
2023/07/14 04:05:04;;;;;;;;;1.00;1.00;;;;;;;;5092208;28;8972;-83
2023/07/14 04:07:48;;;;;;;;;5.00;5.00;;;;;;;;5091664;28;8834;-82
2023/07/14 04:10:30;;;;;;;;;3.00;3.00;;;;;;;;5092415;28;8876;-83
2023/07/14 04:12:59;;;;;;;;;5.50;4.25;;;;;;;;5097026;28;8833;-82
2023/07/14 04:18:24;;;;;;;;;5.50;5.50;;;;;;;;5096571;28;8961;-82
2023/07/14 04:20:53;;;;;;;;;7.00;5.00;;;;;;;;5096488;28;8822;-82
2023/07/14 04:23:36;;;;;;;;;4.25;4.25;;;;;;;;5097079;28;8875;-82
2023/07/14 04:26:07;;;;;;;;;6.50;5.00;;;;;;;;5096418;28;8857;-87
2023/07/14 04:31:29;;;;;;;;;6.33;4.33;;;;;;;;5104638;28;8771;-95
2023/07/14 04:33:56;;;;;;;;;6.00;5.00;;;;;;;;5094268;28;8943;-95
2023/07/14 04:36:23;;;;;;;;;2.25;1.00;;;;;;;;5092360;28;8947;-94
2023/07/14 04:39:08;;;;;;;;;6.00;4.33;;;;;;;;5094755;28;9598;-92
2023/07/14 04:41:36;;;;;;;;;3.00;3.00;;;;;;;;5095291;28;8959;-96
2023/07/14 04:44:08;;;;;;;;;4.75;4.50;;;;;;;;5098360;28;8847;-89
2023/07/14 04:46:36;;;;;;;;;5.25;4.75;;;;;;;;5096209;28;8974;-88
2023/07/14 04:49:03;;;;;;;;;5.00;5.00;;;;;;;;5095744;28;8824;-90
2023/07/14 04:51:30;;;;;;;;;4.75;4.75;;;;;;;;5094717;28;8843;-88
2023/07/14 04:53:57;;;;;;;;;5.00;5.00;;;;;;;;5094395;28;9017;-84
2023/07/14 04:56:25;;;;;;;;;4.00;4.00;;;;;;;;5094305;28;8880;-85
2023/07/14 04:58:53;;;;;;;;;5.50;5.50;;;;;;;;5091817;28;8858;-70
2023/07/14 05:01:21;;;;;;;;;7.50;6.25;;;;;;;;5092876;28;8852;-71
2023/07/14 05:03:48;;;;;;;;;6.75;6.75;;;;;;;;5089276;28;8930;-76
2023/07/14 05:06:16;;;;;;;;;5.00;5.00;;;;;;;;5090105;28;8835;-70
2023/07/14 05:08:43;;;;;;;;;6.75;6.00;;;;;;;;5090053;28;8844;-84
2023/07/14 05:11:10;;;;;;;;;8.25;6.00;;;;;;;;5090076;28;8844;-78
2023/07/14 05:13:38;;;;;;;;;6.50;6.50;;;;;;;;5090380;28;8843;-75
2023/07/14 05:16:05;;;;;;;;;7.25;6.00;;;;;;;;5089957;28;8945;-76
2023/07/14 05:18:33;;;;;;;;;5.25;5.25;;;;;;;;5089600;28;8843;-76
2023/07/14 05:21:03;;;;;;;;;6.75;6.75;;;;;;;;5088694;28;9034;-79
2023/07/14 05:23:30;;;;;;;;;8.50;5.00;;;;;;;;5092745;28;8870;-79
2023/07/14 05:25:57;;;;;;;;;6.75;5.00;;;;;;;;5091111;28;8971;-80
2023/07/14 05:28:27;;;;;;;;;6.75;5.50;;;;;;;;5071328;28;8845;-82
2023/07/14 05:30:55;;;;;;;;;8.00;6.00;;;;;;;;5070369;28;8786;-79
2023/07/14 05:33:22;;;;;;;;;6.75;6.75;;;;;;;;5070369;28;8846;-82
2023/07/14 05:35:50;;;;;;;;;6.75;6.75;;;;;;;;5066837;28;8884;-79
2023/07/14 05:38:18;;;;;;;;;8.00;7.00;;;;;;;;5068794;28;8984;-77
2023/07/14 05:40:52;;;;;;;;;5.25;3.50;;;;;;;;5068739;28;8841;-83
2023/07/14 05:43:19;;;;;;;;;5.00;5.00;;;;;;;;5069529;28;9636;-80
2023/07/14 05:45:47;;;;;;;;;11.25;7.75;;;;;;;;5069087;28;8853;-78
2023/07/14 05:48:16;;;;;;;;;5.50;5.50;;;;;;;;5069612;28;8846;-78
2023/07/14 05:50:44;;;;;;;;;7.25;6.00;;;;;;;;5069219;28;8989;-75
2023/07/14 05:53:13;;;;;;;;;6.75;6.75;;;;;;;;5069262;28;8830;-69
2023/07/14 05:55:40;;;;;;;;;7.25;7.25;;;;;;;;5069438;28;8872;-76
2023/07/14 05:58:08;;;;;;;;;7.00;7.00;;;;;;;;5069680;28;8838;-73
2023/07/14 06:00:38;;;;;;;;;7.00;7.00;;;;;;;;5068454;28;8770;-81
2023/07/14 06:03:06;;;;;;;;;9.00;5.00;;;;;;;;5069468;28;8838;-79
2023/07/14 06:05:33;;;;;;;;;6.25;5.75;;;;;;;;5069728;28;8838;-79
2023/07/14 06:08:00;;;;;;;;;6.25;6.25;;;;;;;;5070214;28;8866;-82
2023/07/14 06:10:29;;;;;;;;;8.00;6.00;;;;;;;;5070447;28;8834;-81
2023/07/14 06:12:56;;;;;;;;;8.00;7.00;;;;;;;;5069403;28;8973;-81
2023/07/14 06:15:24;;;;;;;;;5.00;5.00;;;;;;;;5069742;28;8850;-75
2023/07/14 06:17:51;;;;;;;;;7.25;7.25;;;;;;;;5070144;28;8861;-83
2023/07/14 06:20:20;;;;;;;;;6.50;6.50;;;;;;;;5072294;28;8834;-83
2023/07/14 06:22:48;;;;;;;;;5.75;5.75;;;;;;;;5073707;28;8853;-90
2023/07/14 06:25:15;;;;;;;;;6.75;6.75;;;;;;;;5073472;28;8927;-87
2023/07/14 06:27:44;;;;;;;;;5.25;5.25;;;;;;;;5089885;28;8878;-79
2023/07/14 06:30:11;;;;;;;;;6.75;6.75;;;;;;;;5091133;28;8866;-79
2023/07/14 06:32:39;;;;;;;;;5.75;5.75;;;;;;;;5094597;28;8848;-81
2023/07/14 06:35:08;;;;;;;;;5.50;5.00;;;;;;;;5093813;28;8844;-73
2023/07/14 06:37:35;;;;;;;;;5.50;5.50;;;;;;;;5093908;28;8823;-72
2023/07/14 06:40:03;;;;;;;;;6.50;6.50;;;;;;;;5093269;28;8851;-73
2023/07/14 06:42:30;;;;;;;;;4.25;4.25;;;;;;;;5094048;28;8952;-75
2023/07/14 06:44:59;;;;;;;;;4.25;4.25;;;;;;;;5095048;28;8832;-76
2023/07/14 06:47:26;;;;;;;;;4.75;4.75;;;;;;;;5095685;28;9630;-81
2023/07/14 06:49:56;;;;;;;;;7.75;5.25;;;;;;;;5093812;28;8870;-74
2023/07/14 06:52:25;;;;;;;;;6.50;6.50;;;;;;;;5093350;28;8840;-76
2023/07/14 06:54:55;;;;;;;;;5.00;3.50;;;;;;;;5093038;28;8847;-77
2023/07/14 06:57:22;;;;;;;;;5.00;5.00;;;;;;;;5092764;28;9587;-68
2023/07/14 06:59:49;;;;;;;;;5.00;4.75;;;;;;;;5091034;28;8836;-81
2023/07/14 07:02:18;;;;;;;;;4.00;4.00;;;;;;;;5092049;28;8895;-78
2023/07/14 07:04:45;;;;;;;;;5.50;5.50;;;;;;;;5092196;28;8828;-77
2023/07/14 07:07:13;;;;;;;;;5.25;4.75;;;;;;;;5092991;28;8844;-74
2023/07/14 07:09:40;;;;;;;;;4.00;4.00;;;;;;;;5092849;28;8836;-79
2023/07/14 07:12:09;;;;;;;;;5.00;4.00;;;;;;;;5093293;28;8839;-79
2023/07/14 07:14:36;;;;;;;;;3.50;3.50;;;;;;;;5093751;28;8898;-81
2023/07/14 07:17:04;;;;;;;;;5.00;5.00;;;;;;;;5093222;28;8840;-75
2023/07/14 07:19:34;;;;;;;;;2.75;2.75;;;;;;;;5094581;28;8878;-82
2023/07/14 07:22:01;;;;;;;;;4.75;4.75;;;;;;;;5095165;28;8889;-78
2023/07/14 07:24:28;;;;;;;;;5.00;5.00;;;;;;;;5094756;28;8855;-78
2023/07/14 07:26:56;;;;;;;;;5.75;5.75;;;;;;;;5082443;28;8860;-83
2023/07/14 07:29:26;;;;;;;;;3.80;3.00;;;;;;;;5072051;28;8833;-83
2023/07/14 07:31:55;;;;;;;;;4.00;2.20;;;;;;;;5071598;28;8770;-83
2023/07/14 07:34:24;;;;;;;;;4.25;4.00;;;;;;;;5071883;28;8857;-84
2023/07/14 07:36:55;;;;;;;;;4.40;4.40;;;;;;;;5071775;28;8866;-79
2023/07/14 07:39:22;;;;;;;;;3.00;3.00;;;;;;;;5071818;28;8896;-83
2023/07/14 07:41:49;;;;;;;;;4.60;4.60;;;;;;;;5070562;28;8837;-81
2023/07/14 07:44:16;;;;;;;;;4.00;4.00;;;;;;;;5071370;28;8854;-83
2023/07/14 07:46:43;;;;;;;;;2.80;2.80;;;;;;;;5071366;28;8915;-81
2023/07/14 07:49:11;;;;;;;;;3.20;3.20;;;;;;;;5072157;28;8862;-83
2023/07/14 07:51:38;;;;;;;;;4.80;4.20;;;;;;;;5071894;28;8842;-83
2023/07/14 07:54:07;;;;;;;;;3.80;3.80;;;;;;;;5071909;28;9103;-82
2023/07/14 07:56:35;;;;;;;;;3.00;3.00;;;;;;;;5072762;28;8872;-84
2023/07/14 07:59:02;;;;;;;;;2.20;2.20;;;;;;;;5073218;28;8892;-83
2023/07/14 08:01:29;;;;;;;;;5.00;3.80;;;;;;;;5072099;28;8802;-84
2023/07/14 08:03:57;;;;;;;;;1.80;1.80;;;;;;;;5071487;28;8840;-79
2023/07/14 08:06:27;;;;;;;;;6.80;3.80;;;;;;;;5071571;28;9636;-76
2023/07/14 08:08:56;;;;;;;;;2.80;2.80;;;;;;;;5071145;28;8833;-73
2023/07/14 08:11:26;;;;;;;;;3.40;3.40;;;;;;;;5070622;28;8854;-80
2023/07/14 08:13:58;;;;;;;;;2.60;2.60;;;;;;;;5074156;28;8964;-79
2023/07/14 08:16:26;;;;;;;;;2.80;2.80;;;;;;;;5073263;28;8862;-81
2023/07/14 08:18:53;;;;;;;;;2.80;2.20;;;;;;;;5070459;28;8911;-83
2023/07/14 08:21:22;;;;;;;;;3.20;3.20;;;;;;;;5071022;28;8968;-80
2023/07/14 08:23:49;;;;;;;;;3.00;3.00;;;;;;;;5070490;28;8838;-83
2023/07/14 08:26:16;;;;;;;;;2.20;2.20;;;;;;;;5075085;28;8873;-83
2023/07/14 08:28:45;;;;;;;;;2.80;2.80;;;;;;;;5090876;28;8966;-80
2023/07/14 08:31:14;;;;;;;;;3.20;3.20;;;;;;;;5090020;28;8927;-82
2023/07/14 08:33:43;;;;;;;;;3.80;3.80;;;;;;;;5090757;28;8882;-72
2023/07/14 08:36:11;;;;;;;;;5.80;2.80;;;;;;;;5091122;28;8966;-80
2023/07/14 08:38:41;;;;;;;;;2.60;2.60;;;;;;;;5090831;28;8827;-80
2023/07/14 08:41:23;;;;;;;;;1.40;1.40;;;;;;;;5090771;28;9692;-77
2023/07/14 08:44:15;;;;;;;;;1.80;1.80;;;;;;;;5090035;28;8970;-80
2023/07/14 08:46:50;;;;;;;;;3.20;3.20;;;;;;;;5090366;28;8867;-76
2023/07/14 08:49:22;;;;;;;;;4.20;3.20;;;;;;;;5090347;28;8954;-78
2023/07/14 08:51:54;;;;;;;;;2.60;2.60;;;;;;;;5089923;28;8881;-77
2023/07/14 08:54:24;;;;;;;;;2.80;2.00;;;;;;;;5090093;28;8862;-75
2023/07/14 08:56:52;;;;;;;;;2.80;2.80;;;;;;;;5089729;28;8851;-73
2023/07/14 08:59:31;;;;;;;;;2.20;2.20;;;;;;;;5089917;28;8824;-79
2023/07/14 09:02:00;;;;;;;;;2.80;2.80;;;;;;;;5089424;28;8768;-77
2023/07/14 09:04:30;;;;;;;;;3.00;3.00;;;;;;;;5089870;28;8924;-73
2023/07/14 09:06:57;;;;;;;;;4.20;2.80;;;;;;;;5089606;28;8850;-81
2023/07/14 09:09:32;;;;;;;;;5.00;4.40;;;;;;;;5090183;28;8862;-78
2023/07/14 09:12:07;;;;;;;;;3.60;3.60;;;;;;;;5089930;28;8989;-78
2023/07/14 09:14:47;;;;;;;;;2.80;2.80;;;;;;;;5089687;28;8862;-81
2023/07/14 09:17:20;;;;;;;;;2.60;2.60;;;;;;;;5091058;28;8983;-86
2023/07/14 09:20:15;;;;;;;;;2.20;2.20;;;;;;;;5090081;28;8844;-80
2023/07/14 09:22:48;;;;;;;;;2.00;2.00;;;;;;;;5086528;28;8854;-82
2023/07/14 09:25:23;;;;;;;;;2.80;1.80;;;;;;;;5090486;28;8856;-81
2023/07/14 09:27:50;;;;;;;;;2.20;2.20;;;;;;;;5074279;28;8830;-80
2023/07/14 09:30:22;;;;;;;;;1.60;1.60;;;;;;;;5070199;28;8845;-80
2023/07/14 09:32:52;;;;;;;;;2.40;2.40;;;;;;;;5071558;28;8854;-80
2023/07/14 09:35:21;;;;;;;;;1.60;1.60;;;;;;;;5071488;28;8849;-79
2023/07/14 09:37:51;;;;;;;;;1.20;1.20;;;;;;;;5070318;28;8857;-78
2023/07/14 09:40:21;;;;;;;;;3.00;3.00;;;;;;;;5069948;28;8935;-79
2023/07/14 09:42:51;;;;;;;;;3.60;3.60;;;;;;;;5068989;28;8850;-75
2023/07/14 09:45:22;;;;;;;;;2.00;2.00;;;;;;;;5069289;28;8857;-79
2023/07/14 09:47:55;;;;;;;;;2.60;2.60;;;;;;;;5068720;28;8889;-77
2023/07/14 09:50:24;;;;;;;;;1.00;1.00;;;;;;;;5068874;28;8850;-74
2023/07/14 09:52:55;;;;;;;;;1.20;1.20;;;;;;;;5068846;28;9652;-78
2023/07/14 09:55:24;;;;;;;;;2.60;2.60;;;;;;;;5068808;28;8864;-75
2023/07/14 09:57:55;;;;;;;;;3.40;3.20;;;;;;;;5068403;28;8860;-71
2023/07/14 10:00:29;;;;;;;;;2.60;1.00;;;;;;;;5068237;28;8864;-78
2023/07/14 10:03:06;;;;;;;;;1.40;1.40;;;;;;;;5068536;28;8856;-77
2023/07/14 10:05:44;;;;;;;;;4.40;4.40;;;;;;;;5068464;28;8827;-80
2023/07/14 10:08:29;;;;;;;;;2.80;2.80;;;;;;;;5068909;28;8834;-76
2023/07/14 10:11:14;;;;;;;;;2.20;2.20;;;;;;;;5068628;28;8842;-80
2023/07/14 10:13:42;;;;;;;;;0.20;0.20;;;;;;;;5068837;28;9656;-71
2023/07/14 10:16:15;;;;;;;;;2.00;2.00;;;;;;;;5068967;28;8890;-78
2023/07/14 10:18:51;;;;;;;;;2.40;2.40;;;;;;;;5068765;28;8868;-80
2023/07/14 10:21:28;;;;;;;;;5.20;5.20;;;;;;;;5069449;28;8850;-80
2023/07/14 10:23:58;;;;;;;;;2.60;0.00;;;;;;;;5069013;28;8972;-73
2023/07/14 10:26:29;;;;;;;;;1.80;1.80;;;;;;;;5073846;28;8838;-76
2023/07/14 10:28:57;;;;;;;;;3.40;3.40;;;;;;;;5089685;28;8874;-78
2023/07/14 10:31:30;;;;;;;;;1.80;1.80;;;;;;;;5090205;28;8756;-80
2023/07/14 10:34:19;;;;;;;;;3.00;3.00;;;;;;;;5091054;28;8847;-78
2023/07/14 10:36:46;;;;;;;;;2.40;2.40;;;;;;;;5090366;28;8832;-79
2023/07/14 10:39:19;;;;;;;;;1.60;1.60;;;;;;;;5089968;28;8932;-81
2023/07/14 10:41:46;;;;;;;;;3.60;1.80;;;;;;;;5089076;28;8874;-78
2023/07/14 10:44:20;;;;;;;;;2.00;2.00;;;;;;;;5088833;28;8856;-81
2023/07/14 10:46:54;;;;;;;;;2.20;2.20;;;;;;;;5088786;28;8852;-80
2023/07/14 10:49:25;;;;;;;;;3.40;1.80;;;;;;;;5089245;28;8918;-73
2023/07/14 10:51:55;;;;;;;;;16.60;16.60;;;;;;;;5088784;28;8832;-82
2023/07/14 10:54:34;;;;;;;;;2.00;2.00;;;;;;;;5089139;28;8852;-79
2023/07/14 10:57:04;;;;;;;;;3.20;3.20;;;;;;;;5089080;28;9288;-77
2023/07/14 10:59:35;;;;;;;;;10.00;10.00;;;;;;;;5089259;28;8860;-79
2023/07/14 11:02:11;;;;;;;;;3.20;3.20;;;;;;;;5089175;28;8810;-75
2023/07/14 11:04:41;;;;;;;;;5.40;3.80;;;;;;;;5090471;28;8828;-81
2023/07/14 11:07:16;;;;;;;;;3.20;3.20;;;;;;;;5091265;28;8972;-77
2023/07/14 11:09:43;;;;;;;;;4.80;4.80;;;;;;;;5091871;28;8845;-80
2023/07/14 11:12:22;;;;;;;;;6.80;6.80;;;;;;;;5091583;28;8847;-82
2023/07/14 11:14:58;;;;;;;;;3.40;3.40;;;;;;;;5089698;28;9627;-77
2023/07/14 11:17:32;;;;;;;;;2.80;2.80;;;;;;;;5089512;28;8859;-77
2023/07/14 11:20:15;;;;;;;;;2.20;2.20;;;;;;;;5094476;28;8842;-79
2023/07/14 11:23:04;;;;;;;;;3.00;1.00;;;;;;;;5091997;28;8824;-78
2023/07/14 11:25:38;;;;;;;;;2.80;2.00;;;;;;;;5092167;28;8851;-76
2023/07/14 11:28:17;;;;;;;;;2.00;2.00;;;;;;;;5091742;28;9619;-79
2023/07/14 11:30:48;;;;;;;;;1.00;1.00;;;;;;;;5091722;28;8756;-81
2023/07/14 11:33:22;;;;;;;;;3.80;3.80;;;;;;;;5092000;28;8871;-80
2023/07/14 11:35:54;;;;;;;;;2.00;2.00;;;;;;;;5091557;28;8850;-74
2023/07/14 11:38:30;;;;;;;;;4.00;3.60;;;;;;;;5092056;28;8859;-76
2023/07/14 11:40:57;;;;;;;;;3.40;2.20;;;;;;;;5091728;28;8840;-77
2023/07/14 11:43:29;;;;;;;;;3.00;3.00;;;;;;;;5091927;28;8852;-76
2023/07/14 11:45:59;;;;;;;;;1.60;1.60;;;;;;;;5091141;28;8835;-76
2023/07/14 11:48:43;;;;;;;;;0.20;0.20;;;;;;;;5091657;28;8860;-75
2023/07/14 11:51:13;;;;;;;;;1.60;1.60;;;;;;;;5091774;28;8852;-74
2023/07/14 11:54:05;;;;;;;;;2.00;2.00;;;;;;;;5091623;28;8863;-74
2023/07/14 11:56:38;;;;;;;;;1.40;1.40;;;;;;;;5091520;28;8831;-77
2023/07/14 11:59:15;;;;;;;;;1.20;1.20;;;;;;;;5091504;28;8847;-80
2023/07/14 12:01:48;;;;;;;;;1.60;1.60;;;;;;;;5091283;28;8784;-76
2023/07/14 12:04:30;;;;;;;;;1.00;1.00;;;;;;;;5092383;28;8848;-76
2023/07/14 12:07:19;;;;;;;;;3.40;2.00;;;;;;;;5092703;28;8819;-75
2023/07/14 12:10:11;;;;;;;;;1.00;1.00;;;;;;;;5088928;28;8868;-77
2023/07/14 12:12:40;;;;;;;;;1.00;1.00;;;;;;;;5093885;28;8832;-77
2023/07/14 12:15:41;;;;;;;;;1.20;1.20;;;;;;;;5092272;28;8863;-78
2023/07/14 12:18:36;;;;;;;;;2.00;2.00;;;;;;;;5091426;28;8831;-78
2023/07/14 12:21:34;;;;;;;;;2.00;2.00;;;;;;;;5043634;28;8978;-79
2023/07/14 12:24:06;;;;;;;;;2.00;0.60;;;;;;;;5091131;28;9359;-83
2023/07/14 12:26:37;;;;;;;;;0.20;0.20;;;;;;;;5084770;28;8818;-83
2023/07/14 12:29:12;;;;;;;;;1.20;1.20;;;;;;;;5070554;28;8868;-85
2023/07/14 12:31:40;;;;;;;;;1.00;1.00;;;;;;;;5070348;28;8783;-80
2023/07/14 12:34:14;;;;;;;;;0.60;0.60;;;;;;;;5071176;28;8866;-78
2023/07/14 12:36:43;;;;;;;;;1.20;1.20;;;;;;;;5071395;28;8822;-81
2023/07/14 12:39:11;;;;;;;;;1.00;1.00;;;;;;;;5071791;28;8961;-82
2023/07/14 12:41:41;;;;;;;;;2.00;2.00;;;;;;;;5073894;28;8834;-81
2023/07/14 12:44:17;;;;;;;;;1.20;1.20;;;;;;;;5075657;28;8913;-82
2023/07/14 12:46:44;;;;;;;;;1.40;1.40;;;;;;;;5075692;28;8834;-84
2023/07/14 12:49:19;;;;;;;;;2.00;2.00;;;;;;;;5074846;28;8858;-80
2023/07/14 12:51:47;;;;;;;;;1.20;1.20;;;;;;;;5072283;28;8857;-78
2023/07/14 12:54:16;;;;;;;;;0.40;0.40;;;;;;;;5071578;28;9670;-84
2023/07/14 12:56:44;;;;;;;;;1.00;1.00;;;;;;;;5071012;28;8969;-84
2023/07/14 12:59:15;;;;;;;;;1.00;1.00;;;;;;;;5071034;28;8846;-87
2023/07/14 13:01:44;;;;;;;;;2.40;1.80;;;;;;;;5070226;28;8782;-86
2023/07/14 13:04:11;;;;;;;;;1.20;1.20;;;;;;;;5070905;28;8865;-85
2023/07/14 13:06:39;;;;;;;;;2.00;0.80;;;;;;;;5070632;28;8868;-85
2023/07/14 13:09:10;;;;;;;;;1.40;1.40;;;;;;;;5069995;28;8862;-83
2023/07/14 13:11:39;;;;;;;;;1.00;1.00;;;;;;;;5070928;28;8996;-84
2023/07/14 13:14:08;;;;;;;;;2.00;2.00;;;;;;;;5071493;28;8846;-84
2023/07/14 13:16:38;;;;;;;;;2.00;0.00;;;;;;;;5070051;28;8888;-83
2023/07/14 13:19:23;;;;;;;;;2.00;2.00;;;;;;;;5069785;28;8854;-82
2023/07/14 13:21:50;;;;;;;;;1.00;1.00;;;;;;;;5070093;28;8841;-83
2023/07/14 13:24:24;;;;;;;;;4.20;3.80;;;;;;;;5070093;28;9017;-84
2023/07/14 13:26:54;;;;;;;;;2.00;2.00;;;;;;;;5069759;28;8833;-81
2023/07/14 13:29:26;;;;;;;;;2.20;2.20;;;;;;;;5069813;28;8857;-84
2023/07/14 13:31:56;;;;;;;;;1.80;1.40;;;;;;;;5069692;28;8805;-78
2023/07/14 13:34:26;;;;;;;;;1.80;1.80;;;;;;;;5069673;28;9613;-80
2023/07/14 13:36:54;;;;;;;;;0.20;0.20;;;;;;;;5069253;28;8837;-78
2023/07/14 13:39:28;;;;;;;;;1.60;1.60;;;;;;;;5069944;28;8976;-83
2023/07/14 13:42:00;;;;;;;;;1.00;1.00;;;;;;;;5068798;28;8849;-85
2023/07/14 13:44:46;;;;;;;;;1.00;1.00;;;;;;;;5070321;28;8850;-82
2023/07/14 13:47:16;;;;;;;;;2.20;2.20;;;;;;;;5069672;28;8830;-81
2023/07/14 13:49:43;;;;;;;;;1.00;1.00;;;;;;;;5069505;28;8903;-84
2023/07/14 13:52:16;;;;;;;;;1.40;1.40;;;;;;;;5070145;28;8850;-83
2023/07/14 13:54:48;;;;;;;;;1.00;1.00;;;;;;;;5069600;28;9747;-84
2023/07/14 13:57:15;;;;;;;;;2.20;2.20;;;;;;;;5070054;28;8830;-83
2023/07/14 13:59:46;;;;;;;;;4.00;2.00;;;;;;;;5070231;28;8854;-82
2023/07/14 14:02:28;;;;;;;;;4.00;2.00;;;;;;;;5069224;28;8900;-84
2023/07/14 14:04:56;;;;;;;;;2.40;2.40;;;;;;;;5069596;28;8884;-83
2023/07/14 14:07:23;;;;;;;;;3.20;3.20;;;;;;;;5070160;28;8838;-85
2023/07/14 14:09:52;;;;;;;;;1.00;1.00;;;;;;;;5070052;28;8850;-85
2023/07/14 14:12:21;;;;;;;;;2.80;2.00;;;;;;;;5068804;28;8858;-84
2023/07/14 14:14:49;;;;;;;;;1.00;1.00;;;;;;;;5071581;28;8873;-83
2023/07/14 14:17:23;;;;;;;;;1.20;1.20;;;;;;;;5072364;28;8945;-83
2023/07/14 14:19:51;;;;;;;;;2.80;1.00;;;;;;;;5072176;28;8874;-87
2023/07/14 14:22:19;;;;;;;;;1.60;1.60;;;;;;;;5071304;28;8850;-86
2023/07/14 14:24:46;;;;;;;;;1.40;1.40;;;;;;;;5071591;28;8842;-85
2023/07/14 14:27:14;;;;;;;;;1.20;1.20;;;;;;;;5081881;28;8839;-83
2023/07/14 14:29:42;;;;;;;;;1.40;1.40;;;;;;;;5089771;28;8862;-82
2023/07/14 14:32:15;;;;;;;;;1.00;1.00;;;;;;;;5089713;28;8900;-90
2023/07/14 14:34:43;;;;;;;;;1.20;1.20;;;;;;;;5089798;28;8836;-88
2023/07/14 14:37:15;;;;;;;;;2.00;2.00;;;;;;;;5090953;28;8873;-87
2023/07/14 14:39:42;;;;;;;;;1.40;1.40;;;;;;;;5091768;28;8847;-83
2023/07/14 14:42:16;;;;;;;;;1.60;1.60;;;;;;;;5091169;28;8963;-83
2023/07/14 14:44:44;;;;;;;;;2.20;1.60;;;;;;;;5090025;28;8848;-86
2023/07/14 14:47:16;;;;;;;;;4.60;3.00;;;;;;;;5072780;28;8836;-81
2023/07/14 14:49:43;;;;;;;;;1.00;1.00;;;;;;;;5089485;28;8877;-84
2023/07/14 14:52:10;;;;;;;;;2.80;1.00;;;;;;;;5091911;28;8836;-86
2023/07/14 14:54:38;;;;;;;;;1.60;1.60;;;;;;;;5094079;28;8866;-81
2023/07/14 14:57:10;;;;;;;;;1.60;1.60;;;;;;;;5093318;28;8864;-82
2023/07/14 14:59:39;;;;;;;;;2.20;2.20;;;;;;;;5093570;28;8866;-88
2023/07/14 15:02:14;;;;;;;;;1.00;1.00;;;;;;;;5092453;28;8823;-92
2023/07/14 15:04:41;;;;;;;;;2.00;2.00;;;;;;;;5094743;28;8866;-79
2023/07/14 15:07:14;;;;;;;;;1.80;1.80;;;;;;;;5094579;28;8851;-86
2023/07/14 15:09:41;;;;;;;;;1.00;1.00;;;;;;;;5093657;28;8986;-87
2023/07/14 15:12:14;;;;;;;;;1.40;1.40;;;;;;;;5093205;28;8974;-87
2023/07/14 15:14:49;;;;;;;;;0.80;0.80;;;;;;;;5093109;28;8844;-78
2023/07/14 15:17:24;;;;;;;;;1.80;1.00;;;;;;;;5093630;28;8843;-83
2023/07/14 15:19:51;;;;;;;;;2.80;1.00;;;;;;;;5094978;28;8854;-84
2023/07/14 15:22:20;;;;;;;;;0.80;0.80;;;;;;;;5090765;28;8840;-83
2023/07/14 15:24:48;;;;;;;;;2.20;1.80;;;;;;;;5093499;28;8866;-80